Airfield :
LOGIN :

Register | Disclaimer

   EN    FR    IT 

 










Legend :    VFR   Marginal VFR   IFR   Intensive IFR   Very Intensive IFR
Visi :
Ceiling :
>= 8 km
>= 3000ft
5 to 8 km
1000 to 3000 ft
1500m to 5 km
500 to 1000 ft
800 to 1500m
200 to 500 ft
< 800m
< 200 ft
Symbols :   Thunderstorms  Fog  Heavy snow  Heavy precipitations  Wind > 20 kt
SIGMETs :     Misc.  Thunderstorms  Icing  Turbulence  Mountain Waves  Volcanic Ashes







- Airport Elevation : 1090 ft
- IATA code : CFE
- Download approach charts


LFLC - Clermont-Ferrand Auvergne

CURRENT METAR :
  • 170900Z AUTO 36003KT 330V030 1400 0800 R26/1200U R08/2200D BCFG VV/// 06/06 Q1019 TEMPO DZ OVC002

EXPIRED METARs :
  • 170830Z AUTO 01003KT 330V050 1200 0800 R26/1200D R08/2000D BCFG VV/// 06/06 Q1020 TEMPO DZ OVC002
  • 170800Z AUTO VRB03KT 1300 0900 R26/1300N R08/1900D BCFG OVC003 06/05 Q1019 TEMPO VV/// BECMG 4000 BR
  • 170730Z AUTO VRB03KT 1500 1000 R26/1300N R08/2200D BR OVC003 06/05 Q1020 TEMPO VV/// BECMG 4000 BR
  • 170700Z AUTO 04003KT 010V080 2000 1400 R26/1800D R08/P2400 BR OVC003 06/05 Q1020 TEMPO 0500 FG VV///
  • 170630Z AUTO 05003KT 020V080 2200 BR OVC003 06/05 Q1020 TEMPO 0500 FG VV///

TAF AMD TAF LFLC
Valid from the 17 at 09:00 until the 18 at 09:00 UTC


170931Z 1709/1809 36004KT 3000 BR OVC004
TEMPO 1709/1711 0800 DZ BCFG VV///
BECMG 1712/1715 6000 BKN010
TEMPO 1718/1722 16008KT SCT060
BECMG 1722/1801 VRB03KT 4000 BR SCT004
TEMPO 1801/1808 0500 BCFG OVC002
ATIS : +33 4 73 62 74 38
No reported NOTAMs for that airfield.



MET'MAP, your aeronautical weather chart ! - Copyright ORBIFLY December 2007 - Disclaimer

ORBIFLY MET'MAP TEAM :

Programming & Development : Alexandra Zaïnal
Concept & Development : Baudouin d'Aumeries
Co-Development & Prog : Marc-Olivier Méhu
Technical & hardware support : Manuel Goepfert

Contact : metmap@orbifly.com




SOURCES & CREDITS :

   NOAA